Time;durP1;ratioP1;P1;durP2;ratioP2;P2;SDS_P1;SDS_P2;PMS_P1;PMS_P2;Temp;Humidity;BMP_temperature;BMP_pressure;BME280_temperature;BME280_humidity;BME280_pressure;Samples;Min_cycle;Max_cycle;Signal;HPM_P1;HPM_P2
2024/01/17 00:06:13;;;;;;;82.70;41.00;;;;;;;-6.53;89.21;97840.65;435284;1255;105903;-40
2024/01/17 00:26:27;;;;;;;94.80;47.10;;;;;;;-6.71;89.15;97831.05;435194;1252;110228;-40
2024/01/17 00:46:40;;;;;;;82.00;41.80;;;;;;;-6.78;89.67;97829.43;435260;1251;98700;-40
2024/01/17 00:56:47;;;;;;;84.90;42.60;;;;;;;-6.84;89.65;97825.83;434883;1264;397007;-40
2024/01/17 01:16:59;;;;;;;91.00;44.60;;;;;;;-7.03;89.41;97831.01;435197;1257;110878;-41
2024/01/17 01:27:05;;;;;;;89.60;45.60;;;;;;;-7.09;89.61;97822.68;435057;1251;107252;-42
2024/01/17 01:37:12;;;;;;;111.10;49.80;;;;;;;-6.99;89.71;97816.77;435121;1251;100873;-40
2024/01/17 01:47:19;;;;;;;98.40;47.70;;;;;;;-7.02;89.86;97807.35;435317;1257;106767;-38
2024/01/17 01:57:28;;;;;;;108.80;54.20;;;;;;;-7.11;89.82;97791.62;435017;1252;99246;-41
2024/01/17 02:07:36;;;;;;;160.40;64.00;;;;;;;-7.23;89.91;97784.50;435083;1264;111216;-39
2024/01/17 02:17:44;;;;;;;121.10;55.90;;;;;;;-7.34;89.88;97773.73;435141;1256;107825;-39
2024/01/17 02:27:50;;;;;;;72.60;39.50;;;;;;;-7.42;89.77;97768.08;435205;1256;99278;-40
2024/01/17 02:37:57;;;;;;;102.70;49.10;;;;;;;-7.47;90.01;97749.73;435298;1251;108069;-39
2024/01/17 02:48:04;;;;;;;104.30;48.10;;;;;;;-7.49;90.04;97730.08;435897;1243;98841;-35
2024/01/17 02:58:11;;;;;;;101.20;45.60;;;;;;;-7.50;89.99;97734.27;435235;1252;113981;-41
2024/01/17 03:08:18;;;;;;;97.40;45.10;;;;;;;-7.58;90.03;97742.63;435058;1266;107093;-41
2024/01/17 03:28:33;;;;;;;97.80;49.10;;;;;;;-7.86;89.81;97729.27;435169;1258;107747;-40
2024/01/17 03:48:46;;;;;;;93.60;46.60;;;;;;;-7.90;89.85;97725.17;435168;1253;112204;-39
2024/01/17 03:58:52;;;;;;;99.30;46.50;;;;;;;-7.94;89.77;97719.86;434984;1252;108392;-39
2024/01/17 04:08:59;;;;;;;115.40;54.20;;;;;;;-7.96;89.79;97721.83;435128;1257;99233;-40
2024/01/17 04:19:08;;;;;;;129.30;56.90;;;;;;;-7.97;89.68;97710.65;435261;1257;107267;-39
2024/01/17 04:39:21;;;;;;;101.00;48.00;;;;;;;-8.08;89.81;97675.11;435125;1268;111740;-39
2024/01/17 04:49:29;;;;;;;87.10;41.10;;;;;;;-8.02;89.95;97660.39;435018;1256;108569;-39
2024/01/17 04:59:36;;;;;;;85.20;42.00;;;;;;;-7.89;90.10;97641.27;435065;1257;99605;-39
2024/01/17 05:09:43;;;;;;;86.10;49.20;;;;;;;-7.84;89.93;97626.92;434953;1257;108116;-39
2024/01/17 05:19:50;;;;;;;110.30;48.70;;;;;;;-7.81;89.80;97612.15;435117;1256;98827;-39
2024/01/17 05:29:58;;;;;;;100.30;42.80;;;;;;;-7.82;89.78;97607.30;434857;1257;113345;-39
2024/01/17 05:40:06;;;;;;;97.70;47.60;;;;;;;-7.83;89.91;97592.16;435018;1271;106237;-38
2024/01/17 06:10:28;;;;;;;107.10;46.90;;;;;;;-8.13;89.63;97559.16;435442;1252;99265;-40
2024/01/17 06:20:35;;;;;;;87.30;40.60;;;;;;;-8.20;89.57;97550.73;435456;1257;110993;-40
2024/01/17 06:30:43;;;;;;;78.50;40.80;;;;;;;-8.21;89.82;97538.16;435106;1252;108700;-39
2024/01/17 06:40:50;;;;;;;89.30;37.30;;;;;;;-8.22;89.59;97527.96;435196;1253;99253;-40
2024/01/17 07:01:04;;;;;;;108.70;53.50;;;;;;;-7.95;89.72;97537.77;435389;1257;99245;-39
2024/01/17 07:21:16;;;;;;;65.40;31.20;;;;;;;-7.54;89.74;97512.31;434946;1257;109837;-40
2024/01/17 07:31:23;;;;;;;49.70;24.30;;;;;;;-7.24;89.85;97491.13;435014;1253;99236;-40
2024/01/17 07:41:30;;;;;;;58.60;23.60;;;;;;;-6.84;89.91;97465.34;435210;1256;108671;-39
2024/01/17 07:51:36;;;;;;;54.70;26.20;;;;;;;-6.34;90.12;97439.83;435098;1258;98813;-40
2024/01/17 08:01:42;;;;;;;60.10;29.20;;;;;;;-5.55;90.32;97433.64;435356;1258;111488;-40
2024/01/17 08:11:49;;;;;;;74.80;28.80;;;;;;;-4.39;90.72;97414.31;435275;1253;108292;-39
2024/01/17 08:21:57;;;;;;;77.00;32.40;;;;;;;-3.12;90.54;97396.59;435211;1256;97998;-39
2024/01/17 08:32:04;;;;;;;76.00;34.50;;;;;;;-2.02;90.04;97374.86;435047;1252;111610;-40
2024/01/17 08:42:10;;;;;;;82.90;36.80;;;;;;;-1.32;89.13;97351.32;434988;1258;108589;-40
2024/01/17 08:52:17;;;;;;;87.60;37.60;;;;;;;-1.37;88.08;97320.09;435291;1258;97977;-38
2024/01/17 09:12:27;;;;;;;69.70;28.80;;;;;;;-1.86;87.58;97317.64;435151;1253;108676;-40
2024/01/17 09:42:48;;;;;;;53.00;21.00;;;;;;;-1.41;85.78;97243.04;434962;1253;107674;-39
2024/01/17 09:53:11;;;;;;;47.00;21.40;;;;;;;-1.33;84.96;97219.32;435110;1257;98837;-38
2024/01/17 10:03:20;;;;;;;56.20;23.00;;;;;;;-1.14;84.21;97190.23;434956;1257;107145;-39
2024/01/17 10:13:28;;;;;;;45.70;18.80;;;;;;;-0.97;83.67;97163.66;435113;1259;99396;-39
2024/01/17 10:33:45;;;;;;;50.40;23.10;;;;;;;-0.01;82.71;97127.97;435141;1253;107058;-40
2024/01/17 10:43:55;;;;;;;54.70;23.10;;;;;;;0.32;81.34;97100.65;435020;1256;98810;-43
2024/01/17 10:54:03;;;;;;;49.40;21.00;;;;;;;0.48;80.58;97087.27;435089;1258;111180;-47
2024/01/17 11:04:17;;;;;;;51.50;22.80;;;;;;;0.69;80.04;97063.61;434982;1256;107922;-38
2024/01/17 11:14:27;;;;;;;41.10;19.10;;;;;;;0.70;78.54;97051.36;434994;1258;97986;-40
2024/01/17 11:24:34;;;;;;;38.90;19.10;;;;;;;0.76;77.93;97029.88;434844;1253;110068;-40
2024/01/17 11:34:41;;;;;;;39.20;17.50;;;;;;;0.83;77.14;97007.20;435132;1256;106825;-40
2024/01/17 11:44:48;;;;;;;44.40;20.90;;;;;;;0.79;76.29;96994.25;434972;1257;99221;-40
2024/01/17 11:55:16;;;;;;;44.30;19.30;;;;;;;0.92;75.85;96956.31;435149;1253;112077;-42
2024/01/17 12:05:22;;;;;;;;;;;;;;;0.93;75.61;96922.59;435077;1258;107207;-41
2024/01/17 12:15:29;;;;;;;47.30;19.70;;;;;;;0.73;75.42;96901.17;435202;1256;99250;-39
2024/01/17 12:25:36;;;;;;;49.70;23.90;;;;;;;0.74;76.11;96881.09;435022;1256;112932;-40
2024/01/17 12:45:51;;;;;;;33.20;16.60;;;;;;;0.77;76.29;96841.41;435010;1257;98603;-39
2024/01/17 12:55:58;;;;;;;36.20;16.60;;;;;;;0.73;76.44;96826.08;434683;1258;482167;-40
2024/01/17 13:26:20;;;;;;;30.80;15.60;;;;;;;0.49;76.23;96783.33;435246;1258;107975;-40
2024/01/17 13:36:27;;;;;;;38.20;16.50;;;;;;;0.34;76.24;96771.35;435059;1256;98924;-38
2024/01/17 13:46:36;;;;;;;36.00;15.60;;;;;;;0.20;76.09;96747.89;435073;1257;97987;-39
2024/01/17 14:06:48;;;;;;;34.50;16.40;;;;;;;-0.08;76.11;96716.55;435355;1256;107573;-41
2024/01/17 14:16:54;;;;;;;22.00;11.70;;;;;;;-0.14;76.08;96700.73;435523;1257;99237;-40
2024/01/17 14:27:02;;;;;;;32.00;15.20;;;;;;;-0.17;76.32;96684.38;435069;1257;112248;-39
2024/01/17 14:37:09;;;;;;;38.50;18.20;;;;;;;-0.32;76.43;96671.45;434968;1257;108775;-39
2024/01/17 14:47:16;;;;;;;39.50;18.60;;;;;;;-0.49;76.79;96652.73;435031;1258;99043;-40
2024/01/17 14:57:23;;;;;;;32.80;17.60;;;;;;;-0.63;76.77;96629.33;435108;1257;111947;-39
2024/01/17 15:07:30;;;;;;;35.50;15.20;;;;;;;-0.74;76.71;96612.52;435113;1258;108736;-40
2024/01/17 15:17:38;;;;;;;34.00;15.30;;;;;;;-0.78;76.87;96596.98;434901;1254;99227;-40
2024/01/17 15:37:52;;;;;;;44.60;21.80;;;;;;;-0.96;77.22;96565.41;435038;1257;107138;-38
2024/01/17 15:47:59;;;;;;;52.40;24.40;;;;;;;-1.12;77.31;96557.98;435103;1256;98077;-40
2024/01/17 15:58:06;;;;;;;44.30;18.50;;;;;;;-1.18;77.22;96535.64;434408;1266;111232;-38
2024/01/17 16:18:18;;;;;;;75.70;29.80;;;;;;;-1.33;77.57;96510.89;434459;1257;99205;-40
2024/01/17 16:28:25;;;;;;;52.40;24.10;;;;;;;-1.44;78.19;96497.29;434723;1266;107394;-38
2024/01/17 16:38:31;;;;;;;52.80;24.50;;;;;;;-1.33;78.30;96490.35;434324;1253;99250;-40
2024/01/17 16:48:38;;;;;;;66.50;30.70;;;;;;;-1.24;78.59;96484.55;434459;1254;111481;-40
2024/01/17 16:58:45;;;;;;;80.80;34.70;;;;;;;-1.28;79.10;96475.65;435064;1266;109183;-40
2024/01/17 17:08:53;;;;;;;85.60;39.10;;;;;;;-1.31;79.42;96465.05;435114;1257;99225;-41
2024/01/17 17:19:01;;;;;;;61.30;29.40;;;;;;;-1.33;79.54;96446.16;434974;1256;110375;-40
2024/01/17 17:29:07;;;;;;;101.70;42.70;;;;;;;-1.31;80.06;96423.66;435104;1256;108736;-40
2024/01/17 17:39:14;;;;;;;100.60;43.40;;;;;;;-1.40;80.32;96408.91;435057;1258;99247;-38
2024/01/17 17:49:21;;;;;;;64.00;32.50;;;;;;;-1.42;80.74;96387.77;435133;1257;112184;-40
2024/01/17 17:59:29;;;;;;;62.10;32.30;;;;;;;-1.30;81.00;96367.80;437398;1257;110317;-38
2024/01/17 18:09:35;;;;;;;113.90;44.60;;;;;;;-1.21;81.39;96346.55;437158;1257;99241;-39
2024/01/17 18:19:41;;;;;;;120.90;48.50;;;;;;;-1.24;81.54;96329.66;437275;1257;107578;-39
2024/01/17 18:29:47;;;;;;;90.60;38.90;;;;;;;-1.29;81.81;96295.76;436528;1257;97996;-38
2024/01/17 18:39:53;;;;;;;73.50;34.60;;;;;;;-1.22;82.17;96267.74;436924;1254;113569;-39
2024/01/17 18:50:00;;;;;;;69.50;32.40;;;;;;;-1.14;82.39;96266.20;436916;1254;108356;-39
2024/01/17 19:00:10;;;;;;;99.60;44.60;;;;;;;-1.09;82.70;96253.98;435314;1254;97972;-38
2024/01/17 19:10:15;;;;;;;118.90;52.30;;;;;;;-1.12;82.87;96225.89;435779;1257;107263;-41
2024/01/17 19:30:27;;;;;;;76.30;36.90;;;;;;;-0.94;83.45;96178.58;435113;1254;110387;-39
2024/01/17 19:40:35;;;;;;;97.10;44.30;;;;;;;-0.80;83.70;96139.33;435061;1254;108162;-40
2024/01/17 20:10:55;;;;;;;99.60;44.20;;;;;;;-0.62;84.21;96100.81;435070;1256;109322;-40
2024/01/17 20:21:01;;;;;;;74.40;34.20;;;;;;;-0.37;84.60;96087.64;435082;1253;99252;-38
2024/01/17 20:31:08;;;;;;;63.40;29.60;;;;;;;-0.08;85.16;96067.05;435238;1254;111836;-39
2024/01/17 21:11:34;;;;;;;65.70;29.40;;;;;;;0.75;87.77;95943.10;434949;1252;99243;-39
2024/01/17 21:31:45;;;;;;;67.70;34.10;;;;;;;0.93;87.93;95943.23;435064;1253;108478;-39
2024/01/17 21:41:52;;;;;;;76.70;39.00;;;;;;;0.94;88.15;95931.66;436007;1258;98853;-40
2024/01/17 22:02:04;;;;;;;54.80;29.50;;;;;;;1.05;88.43;95898.76;435201;1253;107526;-39
2024/01/17 22:12:09;;;;;;;54.20;29.40;;;;;;;1.11;88.64;95872.41;436509;1253;97951;-39
2024/01/17 22:32:22;;;;;;;94.20;42.60;;;;;;;1.04;89.08;95864.19;436040;1256;99275;-39
2024/01/17 22:42:30;;;;;;;55.80;32.00;;;;;;;0.98;89.03;95865.70;435251;1256;112065;-39
2024/01/17 22:52:37;;;;;;;64.20;32.30;;;;;;;1.03;89.33;95826.59;435029;1257;108905;-39
2024/01/17 23:02:43;;;;;;;74.00;38.10;;;;;;;1.06;89.58;95816.75;435053;1258;99346;-38
2024/01/17 23:22:56;;;;;;;77.70;38.80;;;;;;;1.09;90.28;95774.64;435141;1257;97954;-39
2024/01/17 23:43:09;;;;;;;61.20;28.60;;;;;;;1.11;90.82;95757.48;435266;1253;107927;-39
2024/01/17 23:53:16;;;;;;;49.80;27.60;;;;;;;1.30;90.92;95752.11;435073;1257;99258;-39
